Time;durP1;ratioP1;P1;durP2;ratioP2;P2;SDS_P1;SDS_P2;PMS_P1;PMS_P2;Temp;Humidity;BMP_temperature;BMP_pressure;BME280_temperature;BME280_humidity;BME280_pressure;Samples;Min_cycle;Max_cycle;Signal;HPM_P1;HPM_P2
2020/12/05 00:01:13;;;;;;;14.02;12.60;;;1.10;74.10;;;;;;5093677;29;20060;-81
2020/12/05 00:03:44;;;;;;;16.20;13.32;;;1.10;73.80;;;;;;5092786;29;20048;-80
2020/12/05 00:06:22;;;;;;;15.70;14.00;;;1.10;74.10;;;;;;5095095;29;20044;-81
2020/12/05 00:08:54;;;;;;;16.98;13.75;;;1.00;74.10;;;;;;5091487;29;20052;-81
2020/12/05 00:11:28;;;;;;;15.05;13.45;;;1.00;74.90;;;;;;5092910;29;20066;-81
2020/12/05 00:14:00;;;;;;;14.63;13.07;;;1.00;76.80;;;;;;5094043;29;20039;-81
2020/12/05 00:16:32;;;;;;;15.02;13.43;;;1.00;76.40;;;;;;5092683;29;20533;-81
2020/12/05 00:19:04;;;;;;;14.52;13.02;;;0.90;76.00;;;;;;5092248;29;20428;-81
2020/12/05 00:21:36;;;;;;;13.25;11.90;;;0.80;77.10;;;;;;5091049;29;20450;-82
2020/12/05 00:24:07;;;;;;;20.48;13.02;;;0.80;76.20;;;;;;5093628;29;20107;-81
2020/12/05 00:26:38;;;;;;;12.80;11.60;;;0.90;76.50;;;;;;5092906;29;20043;-79
2020/12/05 00:29:10;;;;;;;11.23;10.23;;;0.90;75.70;;;;;;5088473;29;20454;-79
2020/12/05 00:31:42;;;;;;;11.90;10.70;;;0.90;75.20;;;;;;5093243;29;20044;-82
2020/12/05 00:34:13;;;;;;;11.95;10.82;;;0.90;75.80;;;;;;5090202;29;20071;-80
2020/12/05 00:36:45;;;;;;;12.77;10.98;;;1.00;74.60;;;;;;5093681;29;20039;-80
2020/12/05 00:39:16;;;;;;;15.13;13.55;;;1.00;74.60;;;;;;5095032;29;20044;-79
2020/12/05 00:41:52;;;;;;;14.30;12.80;;;1.00;75.20;;;;;;5093809;29;20098;-79
2020/12/05 00:44:27;;;;;;;13.45;12.15;;;1.00;75.80;;;;;;5093574;29;20485;-79
2020/12/05 00:46:59;;;;;;;13.00;11.73;;;1.00;76.10;;;;;;5091598;29;20048;-82
2020/12/05 00:49:32;;;;;;;12.75;11.45;;;0.90;76.10;;;;;;5081785;29;20861;-80
2020/12/05 00:52:03;;;;;;;13.40;12.10;;;0.90;76.40;;;;;;5075469;29;20205;-80
2020/12/05 00:54:36;;;;;;;14.27;12.88;;;1.00;76.30;;;;;;5082862;29;20839;-78
2020/12/05 00:57:08;;;;;;;14.35;12.80;;;1.00;76.10;;;;;;5094356;29;20474;-79
2020/12/05 00:59:40;;;;;;;14.48;12.98;;;1.10;75.80;;;;;;5093965;29;20047;-79
2020/12/05 01:02:11;;;;;;;15.52;13.93;;;1.10;76.20;;;;;;5093620;29;20136;-79
2020/12/05 01:04:43;;;;;;;14.00;12.60;;;1.20;75.80;;;;;;5092844;29;20799;-80
2020/12/05 01:07:14;;;;;;;13.75;12.35;;;1.20;75.80;;;;;;5093967;29;20095;-77
2020/12/05 01:09:46;;;;;;;12.38;11.07;;;1.30;75.80;;;;;;5093586;29;20042;-80
2020/12/05 01:12:17;;;;;;;13.77;12.38;;;1.20;76.40;;;;;;5093334;29;20067;-80
2020/12/05 01:14:48;;;;;;;13.88;12.55;;;1.30;76.00;;;;;;5093417;29;20210;-79
2020/12/05 01:17:24;;;;;;;14.27;12.85;;;1.30;75.70;;;;;;5075579;29;20055;-78
2020/12/05 01:19:56;;;;;;;13.20;11.90;;;1.30;76.10;;;;;;5090015;29;20048;-80
2020/12/05 01:22:27;;;;;;;13.43;12.00;;;1.30;76.30;;;;;;5093938;29;20075;-79
2020/12/05 01:24:59;;;;;;;13.90;12.43;;;1.30;76.20;;;;;;5091367;29;20417;-79
2020/12/05 01:27:31;;;;;;;13.98;12.57;;;1.40;76.00;;;;;;5094679;29;20110;-80
2020/12/05 01:30:04;;;;;;;14.95;13.05;;;1.40;76.20;;;;;;5090941;29;20044;-76
2020/12/05 01:32:35;;;;;;;14.63;13.07;;;1.40;75.90;;;;;;5092576;29;20059;-80
2020/12/05 01:35:07;;;;;;;14.02;12.40;;;1.40;76.40;;;;;;5091699;29;20111;-76
2020/12/05 01:37:38;;;;;;;13.93;12.52;;;1.40;76.50;;;;;;5093287;29;20094;-79
2020/12/05 01:40:09;;;;;;;14.18;12.65;;;1.50;76.30;;;;;;5093396;29;20044;-80
2020/12/05 01:42:43;;;;;;;14.48;13.07;;;1.50;76.10;;;;;;5093805;29;20035;-79
2020/12/05 01:45:14;;;;;;;14.38;12.98;;;1.50;75.90;;;;;;5092395;29;20040;-78
2020/12/05 01:47:46;;;;;;;13.20;12.00;;;1.60;76.00;;;;;;5091065;29;20044;-81
2020/12/05 01:50:17;;;;;;;15.65;13.15;;;1.60;75.70;;;;;;5089510;29;20115;-80
2020/12/05 01:52:50;;;;;;;13.88;12.57;;;1.60;75.70;;;;;;5091529;29;20043;-77
2020/12/05 01:55:21;;;;;;;14.38;12.88;;;1.60;75.60;;;;;;5091807;29;20115;-79
2020/12/05 01:57:52;;;;;;;15.02;13.18;;;1.60;75.50;;;;;;5093815;29;20043;-79
2020/12/05 02:00:24;;;;;;;14.35;12.95;;;1.70;75.80;;;;;;5092701;29;20048;-79
2020/12/05 02:02:55;;;;;;;14.13;12.73;;;1.70;75.90;;;;;;5108309;28;20573;-79
2020/12/05 02:05:48;;;;;;;15.32;13.73;;;1.70;75.80;;;;;;5091590;29;20501;-79
2020/12/05 02:08:29;;;;;;;17.85;15.93;;;1.70;75.60;;;;;;5094761;29;20032;-79
2020/12/05 02:11:02;;;;;;;17.58;15.13;;;1.70;75.60;;;;;;5088934;29;20748;-82
2020/12/05 02:13:39;;;;;;;18.63;16.63;;;1.70;76.50;;;;;;5108789;28;20047;-79
2020/12/05 02:16:10;;;;;;;19.05;17.02;;;1.70;76.50;;;;;;5090045;29;20100;-79
2020/12/05 02:18:45;;;;;;;19.10;17.08;;;1.60;76.40;;;;;;5091580;29;20892;-82
2020/12/05 02:21:18;;;;;;;21.95;18.27;;;1.70;76.70;;;;;;5090269;29;20922;-81
2020/12/05 02:23:51;;;;;;;20.60;17.40;;;1.70;76.60;;;;;;5090469;29;20043;-79
2020/12/05 02:26:23;;;;;;;19.77;17.75;;;1.70;76.40;;;;;;5091207;29;20413;-79
2020/12/05 02:28:55;;;;;;;18.80;16.60;;;1.70;76.30;;;;;;5084274;29;20119;-80
2020/12/05 02:31:26;;;;;;;18.73;16.73;;;1.80;76.20;;;;;;5092401;29;20099;-79
2020/12/05 02:33:58;;;;;;;18.70;16.70;;;1.80;76.20;;;;;;5090576;29;20489;-80
2020/12/05 02:36:35;;;;;;;19.63;17.55;;;1.80;76.30;;;;;;5090930;29;20069;-80
2020/12/05 02:39:11;;;;;;;20.83;18.40;;;1.80;76.30;;;;;;5091166;29;20122;-79
2020/12/05 02:41:42;;;;;;;19.45;17.35;;;1.80;76.30;;;;;;5091547;29;20106;-82
2020/12/05 02:44:14;;;;;;;22.15;19.65;;;1.80;76.30;;;;;;5089903;29;20040;-80
2020/12/05 02:46:49;;;;;;;23.98;19.60;;;1.80;76.60;;;;;;5091727;29;20062;-80
2020/12/05 02:49:20;;;;;;;22.08;19.60;;;1.80;76.80;;;;;;5089719;29;20744;-79
2020/12/05 02:51:52;;;;;;;21.45;18.52;;;1.70;77.20;;;;;;5088717;29;20051;-79
2020/12/05 02:54:23;;;;;;;19.98;17.38;;;1.70;77.50;;;;;;5092114;29;20035;-81
2020/12/05 02:56:54;;;;;;;18.88;16.85;;;1.70;77.20;;;;;;5089950;29;20786;-78
2020/12/05 02:59:30;;;;;;;16.90;15.20;;;1.80;77.20;;;;;;5093107;29;20047;-79
2020/12/05 03:02:01;;;;;;;17.67;15.88;;;1.80;76.80;;;;;;5090567;29;20047;-80
2020/12/05 03:04:33;;;;;;;20.30;15.98;;;1.90;76.90;;;;;;5092497;29;20056;-80
2020/12/05 03:07:05;;;;;;;18.73;16.83;;;1.90;76.70;;;;;;5089007;29;20046;-79
2020/12/05 03:09:37;;;;;;;16.27;14.68;;;2.00;76.70;;;;;;5098206;28;20048;-80
2020/12/05 03:12:08;;;;;;;18.25;16.45;;;2.00;76.50;;;;;;5089259;29;20040;-80
2020/12/05 03:14:40;;;;;;;17.08;15.48;;;2.00;76.40;;;;;;5091400;29;20032;-79
2020/12/05 03:17:11;;;;;;;15.50;14.00;;;2.10;76.40;;;;;;5090769;29;20079;-79
2020/12/05 03:19:42;;;;;;;15.60;14.07;;;2.10;76.10;;;;;;5090260;29;20071;-79
2020/12/05 03:22:14;;;;;;;16.30;14.70;;;2.10;76.10;;;;;;5091339;29;20092;-79
2020/12/05 03:24:49;;;;;;;18.50;16.48;;;2.10;76.20;;;;;;5091061;29;20596;-80
2020/12/05 03:27:21;;;;;;;18.77;16.75;;;2.00;76.50;;;;;;5091578;29;20429;-80
2020/12/05 03:29:52;;;;;;;19.58;16.80;;;1.90;76.80;;;;;;5090537;29;20043;-81
2020/12/05 03:32:31;;;;;;;20.00;17.52;;;1.90;77.00;;;;;;5089809;29;20415;-82
2020/12/05 03:35:02;;;;;;;19.02;17.10;;;1.80;77.60;;;;;;5090227;29;20047;-81
2020/12/05 03:37:34;;;;;;;19.90;17.80;;;1.70;78.10;;;;;;5090464;29;20079;-82
2020/12/05 03:40:06;;;;;;;18.73;16.65;;;1.70;78.10;;;;;;5091437;29;20103;-81
2020/12/05 03:42:38;;;;;;;19.00;17.00;;;1.70;78.20;;;;;;5092123;29;20704;-82
2020/12/05 03:45:09;;;;;;;19.77;17.77;;;1.70;78.00;;;;;;5071031;29;20048;-81
2020/12/05 03:47:41;;;;;;;18.50;16.55;;;1.80;77.80;;;;;;5098345;29;20501;-81
2020/12/05 03:50:13;;;;;;;19.27;17.17;;;1.80;77.80;;;;;;5080295;29;20059;-82
2020/12/05 03:52:44;;;;;;;18.63;16.73;;;1.90;78.20;;;;;;5107302;28;20039;-80
2020/12/05 03:55:15;;;;;;;17.92;16.23;;;1.90;78.60;;;;;;5096767;29;20169;-81
2020/12/05 03:57:47;;;;;;;18.10;16.20;;;1.90;78.80;;;;;;5094593;29;20395;-80
2020/12/05 04:00:18;;;;;;;18.05;16.25;;;2.00;78.60;;;;;;5110133;28;20040;-81
2020/12/05 04:02:50;;;;;;;17.45;15.70;;;2.00;79.00;;;;;;5093209;29;20044;-82
2020/12/05 04:05:21;;;;;;;17.70;15.90;;;2.00;78.80;;;;;;5104066;28;20050;-82
2020/12/05 04:07:53;;;;;;;18.05;16.17;;;2.00;78.50;;;;;;5092445;29;20055;-82
2020/12/05 04:10:24;;;;;;;17.27;15.52;;;2.00;78.30;;;;;;5093828;29;20059;-82
2020/12/05 04:12:56;;;;;;;17.85;16.15;;;2.10;78.30;;;;;;5096281;29;20525;-82
2020/12/05 04:15:27;;;;;;;17.08;15.20;;;2.10;78.10;;;;;;5093211;29;20043;-83
2020/12/05 04:17:59;;;;;;;16.10;14.50;;;2.20;78.20;;;;;;5087596;29;20039;-81
2020/12/05 04:20:31;;;;;;;16.60;14.68;;;2.20;78.30;;;;;;5094540;29;20091;-82
2020/12/05 04:23:03;;;;;;;16.08;14.48;;;2.20;78.30;;;;;;5092004;29;20043;-82
2020/12/05 04:25:34;;;;;;;16.75;14.98;;;2.20;78.30;;;;;;5093475;29;20597;-81
2020/12/05 04:28:07;;;;;;;16.27;14.65;;;2.30;78.10;;;;;;5090924;29;20662;-82
2020/12/05 04:30:39;;;;;;;16.15;14.55;;;2.20;78.20;;;;;;5093128;29;20191;-82
2020/12/05 04:33:10;;;;;;;17.45;15.70;;;2.20;78.50;;;;;;5093046;29;20398;-82
2020/12/05 04:35:42;;;;;;;16.77;15.18;;;2.30;78.40;;;;;;5090739;29;20111;-82
2020/12/05 04:38:13;;;;;;;16.60;15.00;;;2.30;78.40;;;;;;5091074;29;20068;-81
2020/12/05 04:40:45;;;;;;;17.15;15.45;;;2.30;78.20;;;;;;5092712;29;20038;-82
2020/12/05 04:43:16;;;;;;;16.83;15.23;;;2.30;78.20;;;;;;5096359;29;20114;-81
2020/12/05 04:45:48;;;;;;;16.00;14.50;;;2.30;78.90;;;;;;5094845;29;20043;-81
2020/12/05 04:48:21;;;;;;;16.45;14.85;;;2.30;78.70;;;;;;5093250;29;20060;-82
2020/12/05 04:50:54;;;;;;;14.93;13.52;;;2.30;78.50;;;;;;5092640;29;20044;-82
2020/12/05 04:53:30;;;;;;;14.77;13.38;;;2.30;78.30;;;;;;5093166;29;20098;-82
2020/12/05 04:56:02;;;;;;;16.23;14.63;;;2.30;78.20;;;;;;5092119;29;20044;-82
2020/12/05 04:58:36;;;;;;;15.25;13.85;;;2.30;78.70;;;;;;5093293;29;20573;-81
2020/12/05 05:01:12;;;;;;;15.10;13.48;;;2.30;78.40;;;;;;5093401;29;20040;-81
2020/12/05 05:03:44;;;;;;;14.27;12.98;;;2.30;78.40;;;;;;5109531;28;20051;-82
2020/12/05 05:06:20;;;;;;;14.95;13.55;;;2.30;79.00;;;;;;5094095;29;20048;-81
2020/12/05 05:08:51;;;;;;;15.27;13.85;;;2.30;79.30;;;;;;5093413;29;20114;-81
2020/12/05 05:11:26;;;;;;;15.18;13.77;;;2.30;79.10;;;;;;5091632;29;20052;-82
2020/12/05 05:14:33;;;;;;;15.35;13.80;;;2.30;78.60;;;;;;5093870;29;20040;-82
2020/12/05 05:17:07;;;;;;;15.40;14.00;;;2.30;78.70;;;;;;5091120;29;20450;-82
2020/12/05 05:19:38;;;;;;;15.80;14.30;;;2.40;78.10;;;;;;5094980;29;20111;-81
2020/12/05 05:22:10;;;;;;;16.83;15.18;;;2.40;78.30;;;;;;5094812;29;20532;-81
2020/12/05 05:24:59;;;;;;;17.40;15.70;;;2.40;78.40;;;;;;5093824;28;20541;-81
2020/12/05 05:27:32;;;;;;;17.65;15.90;;;2.30;79.20;;;;;;5108046;28;20617;-80
2020/12/05 05:30:12;;;;;;;17.77;16.00;;;2.20;79.20;;;;;;5089873;29;20043;-81
2020/12/05 05:32:46;;;;;;;17.38;15.68;;;2.20;79.70;;;;;;5093406;29;20036;-82
2020/12/05 05:35:18;;;;;;;18.48;16.67;;;2.10;79.90;;;;;;5090545;29;20036;-81
2020/12/05 05:37:50;;;;;;;18.35;16.55;;;2.00;80.40;;;;;;5091471;29;20080;-81
2020/12/05 05:40:25;;;;;;;18.65;16.67;;;2.00;80.80;;;;;;5092034;29;20051;-82
2020/12/05 05:42:56;;;;;;;20.88;18.88;;;1.90;81.30;;;;;;5092572;29;20043;-82
2020/12/05 05:45:28;;;;;;;17.08;15.43;;;1.90;81.00;;;;;;5092984;29;20074;-82
2020/12/05 05:48:02;;;;;;;16.70;15.10;;;1.90;82.00;;;;;;5074879;29;20576;-82
2020/12/05 05:50:35;;;;;;;16.63;15.10;;;2.00;81.00;;;;;;5090402;29;20063;-82
2020/12/05 05:53:09;;;;;;;15.23;13.82;;;2.00;80.30;;;;;;5091261;29;20048;-82
2020/12/05 05:55:49;;;;;;;15.73;14.13;;;2.10;80.20;;;;;;5091984;29;20110;-81
2020/12/05 05:58:21;;;;;;;16.10;14.48;;;2.10;80.40;;;;;;5091837;29;20051;-82
2020/12/05 06:00:53;;;;;;;15.23;13.73;;;2.10;80.70;;;;;;5091928;29;20047;-81
2020/12/05 06:03:27;;;;;;;15.50;14.05;;;2.10;80.20;;;;;;5093198;29;20102;-82
2020/12/05 06:06:00;;;;;;;16.42;14.90;;;2.20;79.80;;;;;;5090597;29;20403;-82
2020/12/05 06:08:31;;;;;;;14.82;13.43;;;2.20;79.70;;;;;;5094652;29;20071;-81
2020/12/05 06:11:10;;;;;;;15.35;13.75;;;2.20;79.90;;;;;;5088993;29;20043;-82
2020/12/05 06:13:43;;;;;;;14.30;13.00;;;2.20;79.70;;;;;;5104325;28;20040;-79
2020/12/05 06:16:18;;;;;;;14.88;13.48;;;2.20;79.50;;;;;;5091405;29;20099;-81
2020/12/05 06:18:52;;;;;;;14.82;13.43;;;2.20;79.40;;;;;;5092399;29;20048;-79
2020/12/05 06:21:31;;;;;;;15.90;14.40;;;2.20;79.80;;;;;;5090709;29;20040;-79
2020/12/05 06:24:06;;;;;;;14.80;13.50;;;2.20;79.40;;;;;;5092860;29;20047;-79
2020/12/05 06:26:40;;;;;;;15.68;14.18;;;2.30;79.20;;;;;;5092915;29;20052;-80
2020/12/05 06:29:12;;;;;;;15.02;13.65;;;2.30;78.90;;;;;;5090505;29;20044;-81
2020/12/05 06:31:46;;;;;;;15.10;13.75;;;2.30;78.80;;;;;;5091543;29;20095;-79
2020/12/05 06:34:40;;;;;;;14.90;13.50;;;2.20;79.40;;;;;;5073469;29;20044;-80
2020/12/05 06:37:30;;;;;;;15.13;13.77;;;2.20;79.10;;;;;;5090090;29;20052;-79
2020/12/05 06:40:04;;;;;;;16.05;14.52;;;2.20;78.90;;;;;;5090789;29;20051;-81
2020/12/05 06:42:40;;;;;;;15.65;14.25;;;2.20;78.60;;;;;;5091775;29;20126;-79
2020/12/05 06:45:26;;;;;;;16.60;15.10;;;2.30;78.60;;;;;;5090210;29;20095;-79
2020/12/05 06:48:08;;;;;;;15.25;13.82;;;2.30;79.20;;;;;;5092218;29;20147;-81
2020/12/05 06:50:41;;;;;;;15.60;14.20;;;2.30;79.20;;;;;;5092201;29;20047;-81
2020/12/05 06:53:21;;;;;;;17.10;15.43;;;2.30;79.20;;;;;;5097163;29;20161;-82
2020/12/05 06:55:54;;;;;;;15.68;14.27;;;2.30;80.10;;;;;;5094533;29;20820;-82
2020/12/05 06:58:28;;;;;;;15.18;13.88;;;2.30;79.60;;;;;;5105737;28;20040;-82
2020/12/05 07:00:59;;;;;;;14.95;13.65;;;2.30;79.80;;;;;;5090259;29;20416;-82
2020/12/05 07:03:32;;;;;;;15.93;14.35;;;2.30;79.40;;;;;;5089883;29;20071;-81
2020/12/05 07:06:03;;;;;;;21.95;17.88;;;2.30;79.30;;;;;;5092168;29;20107;-80
2020/12/05 07:08:41;;;;;;;17.25;15.40;;;2.30;79.30;;;;;;5092082;29;20079;-80
2020/12/05 07:11:12;;;;;;;16.05;14.43;;;2.30;79.50;;;;;;5079101;29;20043;-80
2020/12/05 07:13:51;;;;;;;14.45;13.15;;;2.40;79.00;;;;;;5092907;29;20099;-80
2020/12/05 07:16:28;;;;;;;13.07;11.98;;;2.40;79.10;;;;;;5091074;29;20399;-79
2020/12/05 07:19:01;;;;;;;13.80;12.60;;;2.30;79.10;;;;;;5094598;29;20161;-79
2020/12/05 07:21:32;;;;;;;14.15;12.88;;;2.40;79.20;;;;;;5095954;29;20051;-81
2020/12/05 07:24:04;;;;;;;13.65;12.55;;;2.40;79.60;;;;;;5096693;29;20106;-80
2020/12/05 07:26:36;;;;;;;13.23;12.02;;;2.40;79.70;;;;;;5068479;29;20813;-80
2020/12/05 07:29:07;;;;;;;13.48;12.27;;;2.40;79.70;;;;;;5098896;29;20499;-80
2020/12/05 07:31:39;;;;;;;13.00;11.85;;;2.40;79.70;;;;;;5096881;29;20102;-80
2020/12/05 07:34:10;;;;;;;13.73;12.50;;;2.50;79.70;;;;;;5096781;29;20110;-80
2020/12/05 07:36:42;;;;;;;12.95;11.75;;;2.40;80.60;;;;;;5094640;29;20063;-81
2020/12/05 07:39:13;;;;;;;13.43;12.13;;;2.40;79.50;;;;;;5095790;29;20762;-80
2020/12/05 07:41:50;;;;;;;13.93;12.63;;;2.40;79.70;;;;;;5094125;29;20052;-80
2020/12/05 07:44:22;;;;;;;15.43;13.93;;;2.40;80.00;;;;;;5099218;29;20043;-80
2020/12/05 07:46:54;;;;;;;14.25;12.95;;;2.40;79.70;;;;;;5097975;29;20047;-80
2020/12/05 07:49:25;;;;;;;20.60;18.35;;;2.50;80.00;;;;;;5094266;29;20032;-80
2020/12/05 07:51:57;;;;;;;16.65;15.00;;;2.50;79.80;;;;;;5092698;29;20043;-80
2020/12/05 07:54:29;;;;;;;19.02;17.02;;;2.50;80.20;;;;;;5097210;29;20039;-80
2020/12/05 07:57:07;;;;;;;21.25;19.05;;;2.50;80.00;;;;;;5092906;29;20055;-80
2020/12/05 07:59:38;;;;;;;20.60;18.38;;;2.60;79.90;;;;;;5098264;28;20510;-80
2020/12/05 08:02:22;;;;;;;29.63;22.85;;;2.60;79.80;;;;;;5095907;29;20672;-81
2020/12/05 08:05:00;;;;;;;28.52;23.08;;;2.60;80.10;;;;;;5098429;29;20047;-80
2020/12/05 08:07:38;;;;;;;27.27;22.35;;;2.70;79.80;;;;;;5093683;29;20057;-80
2020/12/05 08:10:13;;;;;;;19.65;17.65;;;2.70;79.70;;;;;;5089403;28;20044;-81
2020/12/05 08:12:44;;;;;;;17.15;15.32;;;2.70;79.90;;;;;;5096333;28;20047;-80
2020/12/05 08:15:19;;;;;;;16.75;15.05;;;2.70;79.60;;;;;;5095953;29;20735;-78
2020/12/05 08:17:51;;;;;;;17.48;15.80;;;2.70;79.40;;;;;;5094249;29;20119;-79
2020/12/05 08:20:23;;;;;;;17.55;15.82;;;2.70;79.50;;;;;;5095191;28;20047;-81
2020/12/05 08:22:59;;;;;;;16.83;15.13;;;2.70;79.50;;;;;;5095948;29;20055;-77
2020/12/05 08:25:30;;;;;;;18.30;16.40;;;2.70;79.60;;;;;;5095031;29;20458;-79
2020/12/05 08:28:03;;;;;;;16.95;15.30;;;2.70;79.50;;;;;;5094228;29;20103;-78
2020/12/05 08:30:35;;;;;;;16.23;14.63;;;2.70;79.80;;;;;;5091699;29;20107;-79
2020/12/05 08:33:06;;;;;;;16.98;15.35;;;2.60;80.00;;;;;;5089904;29;20261;-80
2020/12/05 08:35:42;;;;;;;15.55;13.95;;;2.60;80.00;;;;;;5093020;29;20048;-79
2020/12/05 08:38:21;;;;;;;17.02;15.32;;;2.60;80.10;;;;;;5092900;29;20051;-79
2020/12/05 08:41:03;;;;;;;14.90;13.32;;;2.60;80.00;;;;;;5094857;28;20059;-78
2020/12/05 08:43:34;;;;;;;15.75;14.25;;;2.60;80.30;;;;;;5094989;29;20043;-78
2020/12/05 08:46:20;;;;;;;14.43;13.02;;;2.60;81.20;;;;;;5093549;29;20043;-78
2020/12/05 08:48:52;;;;;;;14.98;13.48;;;2.50;80.60;;;;;;5092551;29;20148;-79
2020/12/05 08:51:27;;;;;;;13.30;12.00;;;2.50;80.70;;;;;;5095967;28;20047;-79
2020/12/05 08:54:06;;;;;;;12.98;11.82;;;2.60;80.60;;;;;;5092566;29;20474;-77
2020/12/05 08:56:37;;;;;;;12.95;11.80;;;2.60;80.40;;;;;;5092535;29;20130;-78
2020/12/05 08:59:09;;;;;;;12.38;11.32;;;2.60;80.30;;;;;;5104815;28;20044;-78
2020/12/05 09:01:43;;;;;;;13.07;11.88;;;2.70;80.40;;;;;;5094007;29;20048;-79
2020/12/05 09:04:26;;;;;;;13.98;12.52;;;2.70;80.30;;;;;;5094164;29;20773;-78
2020/12/05 09:07:18;;;;;;;15.80;14.13;;;2.80;80.00;;;;;;5092638;29;20060;-79
2020/12/05 09:09:50;;;;;;;19.33;15.85;;;2.80;79.80;;;;;;5090705;29;20450;-78
2020/12/05 09:12:21;;;;;;;17.92;16.13;;;2.80;80.00;;;;;;5092129;29;20122;-79
2020/12/05 09:14:57;;;;;;;18.65;16.75;;;2.70;80.30;;;;;;5092349;29;20051;-78
2020/12/05 09:17:34;;;;;;;18.77;16.70;;;2.70;80.60;;;;;;5093933;29;20044;-78
2020/12/05 09:20:23;;;;;;;16.00;14.40;;;2.70;80.40;;;;;;5089317;29;20112;-78
2020/12/05 09:22:57;;;;;;;18.25;16.35;;;2.80;80.10;;;;;;5093262;29;20065;-79
2020/12/05 09:25:30;;;;;;;18.95;16.98;;;2.80;80.00;;;;;;5091477;29;20457;-78
2020/12/05 09:28:11;;;;;;;18.35;16.17;;;2.90;80.20;;;;;;5093485;29;20047;-76
2020/12/05 09:30:43;;;;;;;21.45;18.08;;;2.90;81.20;;;;;;5091682;29;20087;-80
2020/12/05 09:33:15;;;;;;;22.13;17.70;;;2.90;81.10;;;;;;5095408;29;20072;-77
2020/12/05 09:35:48;;;;;;;19.60;17.60;;;3.00;80.80;;;;;;5094201;29;20047;-78
2020/12/05 09:38:20;;;;;;;20.55;18.40;;;3.00;80.70;;;;;;5095696;29;20099;-76
2020/12/05 09:40:51;;;;;;;16.73;14.95;;;3.10;80.80;;;;;;5093693;29;20123;-77
2020/12/05 09:43:23;;;;;;;16.63;14.95;;;3.10;80.20;;;;;;5092207;29;20055;-76
2020/12/05 09:45:55;;;;;;;17.05;15.45;;;3.00;80.20;;;;;;5088365;29;20052;-78
2020/12/05 09:48:26;;;;;;;16.80;15.25;;;2.90;80.50;;;;;;5092213;29;20603;-77
2020/12/05 09:50:58;;;;;;;17.00;15.23;;;2.90;80.50;;;;;;5090376;29;20052;-78
2020/12/05 09:53:32;;;;;;;16.45;14.75;;;2.90;80.50;;;;;;5090665;29;20056;-78
2020/12/05 09:56:03;;;;;;;16.75;14.95;;;2.90;80.10;;;;;;5091231;29;20056;-78
2020/12/05 09:58:35;;;;;;;15.73;14.18;;;3.00;80.10;;;;;;5091661;29;20055;-78
2020/12/05 10:01:06;;;;;;;16.33;14.73;;;3.10;80.00;;;;;;5092708;29;20044;-77
2020/12/05 10:03:38;;;;;;;16.83;15.23;;;3.10;80.00;;;;;;5092085;29;20042;-77
2020/12/05 10:06:09;;;;;;;14.88;13.50;;;3.10;79.80;;;;;;5089812;29;20048;-77
2020/12/05 10:08:41;;;;;;;15.80;14.23;;;3.20;79.60;;;;;;5091800;29;20525;-77
2020/12/05 10:11:12;;;;;;;20.70;18.50;;;3.20;79.60;;;;;;5089950;29;20091;-78
2020/12/05 10:13:43;;;;;;;21.05;18.80;;;3.20;79.50;;;;;;5091346;29;20153;-78
2020/12/05 10:16:15;;;;;;;20.42;18.33;;;3.20;79.60;;;;;;5093050;29;20044;-78
2020/12/05 10:18:46;;;;;;;15.65;14.05;;;3.20;79.30;;;;;;5091941;28;20112;-78
2020/12/05 10:21:18;;;;;;;13.00;11.82;;;3.20;79.00;;;;;;5104471;28;20055;-79
2020/12/05 10:23:49;;;;;;;11.75;10.75;;;3.20;77.90;;;;;;5093691;29;20737;-80
2020/12/05 10:26:20;;;;;;;12.55;11.45;;;3.20;78.50;;;;;;5107902;28;20177;-78
2020/12/05 10:28:52;;;;;;;11.98;10.98;;;3.30;78.30;;;;;;5071863;29;20048;-78
2020/12/05 10:31:24;;;;;;;11.18;10.27;;;3.30;77.90;;;;;;5089585;29;20096;-78
2020/12/05 10:33:55;;;;;;;9.70;8.93;;;3.30;78.00;;;;;;5093957;29;20528;-78
2020/12/05 10:36:27;;;;;;;10.10;9.30;;;3.30;77.00;;;;;;5093234;29;20043;-79
2020/12/05 10:38:59;;;;;;;9.90;9.10;;;3.30;76.50;;;;;;5089848;29;20047;-79
2020/12/05 10:41:30;;;;;;;9.90;9.10;;;3.40;76.40;;;;;;5090306;29;20110;-79
2020/12/05 10:44:06;;;;;;;9.90;9.10;;;3.40;76.00;;;;;;5092163;29;20055;-78
2020/12/05 10:46:43;;;;;;;10.23;9.43;;;3.50;76.00;;;;;;5090617;29;20047;-78
2020/12/05 10:49:17;;;;;;;10.65;9.80;;;3.50;76.00;;;;;;5089331;29;20044;-79
2020/12/05 10:51:49;;;;;;;10.68;9.88;;;3.50;76.20;;;;;;5090925;29;20126;-79
2020/12/05 10:54:21;;;;;;;11.30;10.40;;;3.50;76.30;;;;;;5094669;29;20095;-79
2020/12/05 10:56:53;;;;;;;13.75;12.55;;;3.60;76.10;;;;;;5093006;29;20036;-79
2020/12/05 10:59:24;;;;;;;17.63;15.93;;;3.50;76.10;;;;;;5094480;29;20039;-79
2020/12/05 11:01:56;;;;;;;15.73;14.20;;;3.40;77.20;;;;;;5095031;29;20047;-79
2020/12/05 11:04:27;;;;;;;17.50;15.80;;;3.50;77.50;;;;;;5096042;29;20044;-79
2020/12/05 11:07:01;;;;;;;16.05;14.55;;;3.50;77.70;;;;;;5094674;29;20047;-79
2020/12/05 11:09:33;;;;;;;17.30;15.68;;;3.50;77.90;;;;;;5095335;28;20051;-78
2020/12/05 11:12:05;;;;;;;17.90;16.08;;;3.50;77.90;;;;;;5093127;29;20131;-80
2020/12/05 11:14:36;;;;;;;16.58;14.88;;;3.50;78.10;;;;;;5094710;29;20513;-79
2020/12/05 11:17:07;;;;;;;18.42;16.40;;;3.40;78.30;;;;;;5093941;29;20048;-79
2020/12/05 11:19:39;;;;;;;19.45;17.45;;;3.40;78.70;;;;;;5095732;28;20059;-80
2020/12/05 11:22:10;;;;;;;20.45;18.25;;;3.40;78.80;;;;;;5095026;29;20107;-81
2020/12/05 11:24:42;;;;;;;20.17;17.88;;;3.50;79.00;;;;;;5099560;29;20043;-79
2020/12/05 11:27:13;;;;;;;15.75;14.15;;;3.50;78.70;;;;;;5095311;29;20103;-78
2020/12/05 11:29:48;;;;;;;18.10;16.25;;;3.60;78.40;;;;;;5072968;29;20075;-80
2020/12/05 11:32:19;;;;;;;16.13;14.60;;;3.50;78.30;;;;;;5099953;29;20067;-80
2020/12/05 11:34:51;;;;;;;15.73;14.18;;;3.60;78.10;;;;;;5108058;29;20076;-83
2020/12/05 11:37:23;;;;;;;15.38;13.93;;;3.60;78.10;;;;;;5117739;29;20047;-84
2020/12/05 11:39:55;;;;;;;15.18;13.77;;;3.60;77.80;;;;;;5114814;29;20052;-83
2020/12/05 11:42:33;;;;;;;14.60;13.30;;;3.70;77.70;;;;;;5105837;29;20054;-80
2020/12/05 11:45:05;;;;;;;16.50;14.77;;;3.60;77.90;;;;;;5100768;29;20040;-81
2020/12/05 11:47:37;;;;;;;14.35;13.05;;;3.70;77.50;;;;;;5102730;29;20655;-82
2020/12/05 11:50:08;;;;;;;17.95;16.05;;;3.70;77.50;;;;;;5105493;29;20055;-83
2020/12/05 11:52:40;;;;;;;14.40;13.10;;;3.70;77.50;;;;;;5109301;29;20044;-83
2020/12/05 11:55:11;;;;;;;14.95;13.50;;;3.70;77.50;;;;;;5101210;29;20092;-79
2020/12/05 11:57:42;;;;;;;14.55;13.25;;;3.60;77.80;;;;;;5105691;28;20067;-81
2020/12/05 12:00:15;;;;;;;14.30;13.00;;;3.50;77.80;;;;;;5096725;29;20091;-80
2020/12/05 12:02:46;;;;;;;14.50;13.20;;;3.60;77.80;;;;;;5094956;29;20059;-80
2020/12/05 12:05:18;;;;;;;15.40;13.80;;;3.60;77.60;;;;;;5096992;29;20051;-81
2020/12/05 12:07:49;;;;;;;13.98;12.73;;;3.60;77.80;;;;;;5094502;29;20055;-79
2020/12/05 12:10:21;;;;;;;16.55;15.00;;;3.50;77.90;;;;;;5093210;29;20099;-80
2020/12/05 12:12:52;;;;;;;14.45;13.15;;;3.40;78.40;;;;;;5091488;29;20398;-79
2020/12/05 12:15:24;;;;;;;16.27;14.68;;;3.30;78.70;;;;;;5094388;29;20043;-79
2020/12/05 12:17:56;;;;;;;16.58;15.00;;;3.40;78.70;;;;;;5093853;29;20125;-80
2020/12/05 12:20:28;;;;;;;16.13;14.63;;;3.40;78.40;;;;;;5096474;29;20047;-79
2020/12/05 12:22:59;;;;;;;14.20;12.80;;;3.50;78.30;;;;;;5092209;29;20044;-79
2020/12/05 12:25:31;;;;;;;14.18;12.82;;;3.50;78.20;;;;;;5095156;28;21109;-79
2020/12/05 12:28:02;;;;;;;13.35;12.05;;;3.50;78.20;;;;;;5093312;29;20032;-81
2020/12/05 12:30:34;;;;;;;13.32;12.23;;;3.50;78.30;;;;;;5091000;29;20513;-81
2020/12/05 12:33:05;;;;;;;13.43;12.23;;;3.50;78.40;;;;;;5092465;29;20107;-81
2020/12/05 12:35:37;;;;;;;12.52;11.32;;;3.50;78.30;;;;;;5089642;29;20060;-82
2020/12/05 12:38:08;;;;;;;13.70;12.50;;;3.60;78.20;;;;;;5092042;29;20080;-81
2020/12/05 12:40:40;;;;;;;13.52;12.23;;;3.60;78.10;;;;;;5096377;29;20430;-80
2020/12/05 12:43:11;;;;;;;14.48;13.18;;;3.60;78.10;;;;;;5096475;29;20043;-80
2020/12/05 12:45:44;;;;;;;13.55;12.35;;;3.60;78.00;;;;;;5106997;28;20083;-80
2020/12/05 12:50:54;;;;;;;13.45;12.32;;;3.70;77.90;;;;;;5095001;29;20779;-81
2020/12/05 12:53:25;;;;;;;13.57;12.32;;;3.70;77.90;;;;;;5096371;29;20100;-84
2020/12/05 12:55:57;;;;;;;14.30;13.10;;;3.70;77.90;;;;;;5103034;29;20075;-81
2020/12/05 13:01:32;;;;;;;13.35;12.15;;;3.70;77.80;;;;;;5058178;29;20059;-79
2020/12/05 13:04:04;;;;;;;13.40;12.27;;;3.70;77.80;;;;;;5091419;29;20048;-77
2020/12/05 13:06:35;;;;;;;14.75;13.40;;;3.70;77.90;;;;;;5092213;29;20051;-77
2020/12/05 13:09:07;;;;;;;13.52;12.32;;;3.70;77.90;;;;;;5094527;29;20103;-78
2020/12/05 13:11:38;;;;;;;15.18;13.77;;;3.70;77.80;;;;;;5107477;23;20044;-78
2020/12/05 13:14:10;;;;;;;15.25;13.90;;;3.70;77.80;;;;;;5093723;29;20047;-77